sensor_id;sensor_type;location;lat;lon;timestamp;P1;durP1;ratioP1;P2;durP2;ratioP2
65420;SDS011;52028;50.658;14.004;2023-02-15T00:00:23;52.88;;;18.92;;
65420;SDS011;52028;50.658;14.004;2023-02-15T00:02:48;45.92;;;18.88;;
65420;SDS011;52028;50.658;14.004;2023-02-15T00:05:13;44.97;;;19.00;;
65420;SDS011;52028;50.658;14.004;2023-02-15T00:07:39;50.65;;;18.75;;
65420;SDS011;52028;50.658;14.004;2023-02-15T00:10:05;51.40;;;19.13;;
65420;SDS011;52028;50.658;14.004;2023-02-15T00:12:31;44.10;;;16.70;;
65420;SDS011;52028;50.658;14.004;2023-02-15T00:14:56;49.13;;;17.65;;
65420;SDS011;52028;50.658;14.004;2023-02-15T00:17:21;51.33;;;18.08;;
65420;SDS011;52028;50.658;14.004;2023-02-15T00:19:47;46.28;;;16.88;;
65420;SDS011;52028;50.658;14.004;2023-02-15T00:22:12;46.60;;;16.67;;
65420;SDS011;52028;50.658;14.004;2023-02-15T00:24:38;43.70;;;15.65;;
65420;SDS011;52028;50.658;14.004;2023-02-15T00:27:03;45.88;;;16.65;;
65420;SDS011;52028;50.658;14.004;2023-02-15T00:29:29;48.00;;;16.45;;
65420;SDS011;52028;50.658;14.004;2023-02-15T00:31:54;49.05;;;16.17;;
65420;SDS011;52028;50.658;14.004;2023-02-15T00:34:21;42.33;;;16.48;;
65420;SDS011;52028;50.658;14.004;2023-02-15T00:36:48;42.28;;;13.07;;
65420;SDS011;52028;50.658;14.004;2023-02-15T00:39:14;48.83;;;15.25;;
65420;SDS011;52028;50.658;14.004;2023-02-15T00:41:40;41.30;;;14.38;;
65420;SDS011;52028;50.658;14.004;2023-02-15T00:44:06;48.40;;;15.75;;
65420;SDS011;52028;50.658;14.004;2023-02-15T00:46:31;44.25;;;14.75;;
65420;SDS011;52028;50.658;14.004;2023-02-15T00:48:58;38.08;;;13.52;;
65420;SDS011;52028;50.658;14.004;2023-02-15T00:51:23;37.47;;;13.80;;
65420;SDS011;52028;50.658;14.004;2023-02-15T00:53:49;39.78;;;13.93;;
65420;SDS011;52028;50.658;14.004;2023-02-15T00:56:14;36.20;;;13.52;;
65420;SDS011;52028;50.658;14.004;2023-02-15T00:58:40;36.03;;;12.95;;
65420;SDS011;52028;50.658;14.004;2023-02-15T01:01:07;33.97;;;13.00;;
65420;SDS011;52028;50.658;14.004;2023-02-15T01:03:34;35.85;;;11.98;;
65420;SDS011;52028;50.658;14.004;2023-02-15T01:06:00;33.72;;;12.55;;
65420;SDS011;52028;50.658;14.004;2023-02-15T01:08:26;35.38;;;13.18;;
65420;SDS011;52028;50.658;14.004;2023-02-15T01:10:51;34.47;;;12.07;;
65420;SDS011;52028;50.658;14.004;2023-02-15T01:13:17;34.03;;;14.15;;
65420;SDS011;52028;50.658;14.004;2023-02-15T01:15:43;38.20;;;14.68;;
65420;SDS011;52028;50.658;14.004;2023-02-15T01:18:09;32.38;;;13.05;;
65420;SDS011;52028;50.658;14.004;2023-02-15T01:20:36;38.67;;;13.63;;
65420;SDS011;52028;50.658;14.004;2023-02-15T01:23:04;31.75;;;12.38;;
65420;SDS011;52028;50.658;14.004;2023-02-15T01:25:30;37.65;;;13.25;;
65420;SDS011;52028;50.658;14.004;2023-02-15T01:27:56;29.52;;;11.55;;
65420;SDS011;52028;50.658;14.004;2023-02-15T01:30:21;37.03;;;12.40;;
65420;SDS011;52028;50.658;14.004;2023-02-15T01:32:46;38.65;;;13.43;;
65420;SDS011;52028;50.658;14.004;2023-02-15T01:35:12;31.77;;;12.35;;
65420;SDS011;52028;50.658;14.004;2023-02-15T01:37:37;29.73;;;10.98;;
65420;SDS011;52028;50.658;14.004;2023-02-15T01:40:05;28.15;;;12.00;;
65420;SDS011;52028;50.658;14.004;2023-02-15T01:42:33;32.95;;;11.27;;
65420;SDS011;52028;50.658;14.004;2023-02-15T01:45:32;30.35;;;11.15;;
65420;SDS011;52028;50.658;14.004;2023-02-15T01:50:43;27.95;;;11.95;;
65420;SDS011;52028;50.658;14.004;2023-02-15T01:55:53;27.20;;;10.30;;
65420;SDS011;52028;50.658;14.004;2023-02-15T01:58:22;30.33;;;11.02;;
65420;SDS011;52028;50.658;14.004;2023-02-15T02:00:50;29.30;;;10.75;;
65420;SDS011;52028;50.658;14.004;2023-02-15T02:03:16;26.17;;;11.27;;
65420;SDS011;52028;50.658;14.004;2023-02-15T02:05:42;29.77;;;11.30;;
65420;SDS011;52028;50.658;14.004;2023-02-15T02:08:08;32.38;;;12.40;;
65420;SDS011;52028;50.658;14.004;2023-02-15T02:10:36;30.50;;;12.23;;
65420;SDS011;52028;50.658;14.004;2023-02-15T02:13:03;21.33;;;9.50;;
65420;SDS011;52028;50.658;14.004;2023-02-15T02:15:33;27.17;;;11.13;;
65420;SDS011;52028;50.658;14.004;2023-02-15T02:36:49;23.73;;;9.75;;
65420;SDS011;52028;50.658;14.004;2023-02-15T02:39:25;20.25;;;9.00;;
65420;SDS011;52028;50.658;14.004;2023-02-15T02:42:18;24.48;;;10.77;;
65420;SDS011;52028;50.658;14.004;2023-02-15T02:44:47;23.23;;;9.45;;
65420;SDS011;52028;50.658;14.004;2023-02-15T02:47:30;27.73;;;10.80;;
65420;SDS011;52028;50.658;14.004;2023-02-15T02:50:00;28.75;;;10.48;;
65420;SDS011;52028;50.658;14.004;2023-02-15T02:55:34;28.10;;;10.10;;
65420;SDS011;52028;50.658;14.004;2023-02-15T02:58:31;29.40;;;11.25;;
65420;SDS011;52028;50.658;14.004;2023-02-15T03:01:06;25.60;;;10.15;;
65420;SDS011;52028;50.658;14.004;2023-02-15T03:03:37;24.73;;;9.27;;
65420;SDS011;52028;50.658;14.004;2023-02-15T03:06:07;26.25;;;8.77;;
65420;SDS011;52028;50.658;14.004;2023-02-15T03:08:38;25.55;;;9.15;;
65420;SDS011;52028;50.658;14.004;2023-02-15T03:11:08;26.85;;;9.57;;
65420;SDS011;52028;50.658;14.004;2023-02-15T03:13:36;27.25;;;9.85;;
65420;SDS011;52028;50.658;14.004;2023-02-15T03:16:02;30.45;;;11.27;;
65420;SDS011;52028;50.658;14.004;2023-02-15T03:18:51;24.20;;;10.75;;
65420;SDS011;52028;50.658;14.004;2023-02-15T03:21:31;24.48;;;9.75;;
65420;SDS011;52028;50.658;14.004;2023-02-15T03:24:02;30.13;;;11.70;;
65420;SDS011;52028;50.658;14.004;2023-02-15T03:26:33;32.45;;;11.95;;
65420;SDS011;52028;50.658;14.004;2023-02-15T03:29:01;29.92;;;11.15;;
65420;SDS011;52028;50.658;14.004;2023-02-15T03:31:29;28.15;;;11.38;;
65420;SDS011;52028;50.658;14.004;2023-02-15T03:34:04;25.65;;;11.07;;
65420;SDS011;52028;50.658;14.004;2023-02-15T03:39:04;29.40;;;12.27;;
65420;SDS011;52028;50.658;14.004;2023-02-15T03:41:37;34.50;;;12.98;;
65420;SDS011;52028;50.658;14.004;2023-02-15T03:44:11;34.15;;;13.07;;
65420;SDS011;52028;50.658;14.004;2023-02-15T03:46:45;28.95;;;11.85;;
65420;SDS011;52028;50.658;14.004;2023-02-15T03:51:42;30.73;;;11.23;;
65420;SDS011;52028;50.658;14.004;2023-02-15T03:54:29;28.17;;;11.30;;
65420;SDS011;52028;50.658;14.004;2023-02-15T04:00:04;27.00;;;11.15;;
65420;SDS011;52028;50.658;14.004;2023-02-15T04:05:31;23.83;;;9.35;;
65420;SDS011;52028;50.658;14.004;2023-02-15T04:07:56;29.77;;;10.77;;
65420;SDS011;52028;50.658;14.004;2023-02-15T04:10:22;21.98;;;9.43;;
65420;SDS011;52028;50.658;14.004;2023-02-15T04:13:05;25.33;;;8.68;;
65420;SDS011;52028;50.658;14.004;2023-02-15T04:15:31;25.55;;;10.43;;
65420;SDS011;52028;50.658;14.004;2023-02-15T04:18:15;19.45;;;8.38;;
65420;SDS011;52028;50.658;14.004;2023-02-15T04:20:43;21.60;;;9.40;;
65420;SDS011;52028;50.658;14.004;2023-02-15T04:23:27;23.55;;;9.43;;
65420;SDS011;52028;50.658;14.004;2023-02-15T04:26:11;23.05;;;9.13;;
65420;SDS011;52028;50.658;14.004;2023-02-15T04:28:37;20.02;;;8.18;;
65420;SDS011;52028;50.658;14.004;2023-02-15T04:31:02;22.20;;;9.18;;
65420;SDS011;52028;50.658;14.004;2023-02-15T04:33:27;21.92;;;10.35;;
65420;SDS011;52028;50.658;14.004;2023-02-15T04:35:53;21.63;;;9.45;;
65420;SDS011;52028;50.658;14.004;2023-02-15T04:38:18;22.40;;;9.43;;
65420;SDS011;52028;50.658;14.004;2023-02-15T04:40:44;24.77;;;10.23;;
65420;SDS011;52028;50.658;14.004;2023-02-15T04:43:09;20.30;;;7.15;;
65420;SDS011;52028;50.658;14.004;2023-02-15T04:45:34;26.55;;;10.95;;
65420;SDS011;52028;50.658;14.004;2023-02-15T04:47:59;24.92;;;10.80;;
65420;SDS011;52028;50.658;14.004;2023-02-15T04:50:25;24.85;;;9.68;;
65420;SDS011;52028;50.658;14.004;2023-02-15T04:52:50;29.38;;;10.27;;
65420;SDS011;52028;50.658;14.004;2023-02-15T04:55:16;25.38;;;10.88;;
65420;SDS011;52028;50.658;14.004;2023-02-15T04:57:41;21.83;;;9.23;;
65420;SDS011;52028;50.658;14.004;2023-02-15T05:00:06;22.13;;;9.02;;
65420;SDS011;52028;50.658;14.004;2023-02-15T05:02:33;19.40;;;8.10;;
65420;SDS011;52028;50.658;14.004;2023-02-15T05:04:59;22.30;;;9.15;;
65420;SDS011;52028;50.658;14.004;2023-02-15T05:07:24;18.90;;;9.15;;
65420;SDS011;52028;50.658;14.004;2023-02-15T05:09:49;19.55;;;8.48;;
65420;SDS011;52028;50.658;14.004;2023-02-15T05:12:15;17.65;;;8.18;;
65420;SDS011;52028;50.658;14.004;2023-02-15T05:14:40;18.73;;;8.07;;
65420;SDS011;52028;50.658;14.004;2023-02-15T05:17:05;19.23;;;7.80;;
65420;SDS011;52028;50.658;14.004;2023-02-15T05:19:31;16.67;;;7.40;;
65420;SDS011;52028;50.658;14.004;2023-02-15T05:21:56;20.27;;;8.63;;
65420;SDS011;52028;50.658;14.004;2023-02-15T05:24:21;20.52;;;8.55;;
65420;SDS011;52028;50.658;14.004;2023-02-15T05:27:05;18.33;;;7.63;;
65420;SDS011;52028;50.658;14.004;2023-02-15T05:29:49;16.85;;;6.50;;
65420;SDS011;52028;50.658;14.004;2023-02-15T05:32:15;30.75;;;12.20;;
65420;SDS011;52028;50.658;14.004;2023-02-15T05:34:40;21.45;;;8.80;;
65420;SDS011;52028;50.658;14.004;2023-02-15T05:37:06;17.42;;;7.47;;
65420;SDS011;52028;50.658;14.004;2023-02-15T05:39:32;23.10;;;9.18;;
65420;SDS011;52028;50.658;14.004;2023-02-15T05:41:58;14.88;;;7.63;;
65420;SDS011;52028;50.658;14.004;2023-02-15T05:44:24;20.35;;;7.93;;
65420;SDS011;52028;50.658;14.004;2023-02-15T05:46:50;20.05;;;8.15;;
65420;SDS011;52028;50.658;14.004;2023-02-15T05:49:15;20.08;;;7.93;;
65420;SDS011;52028;50.658;14.004;2023-02-15T05:51:40;18.88;;;9.05;;
65420;SDS011;52028;50.658;14.004;2023-02-15T05:54:06;16.95;;;7.95;;
65420;SDS011;52028;50.658;14.004;2023-02-15T05:56:31;22.10;;;7.88;;
65420;SDS011;52028;50.658;14.004;2023-02-15T05:58:56;22.77;;;10.45;;
65420;SDS011;52028;50.658;14.004;2023-02-15T06:01:22;23.40;;;9.07;;
65420;SDS011;52028;50.658;14.004;2023-02-15T06:03:48;23.73;;;11.32;;
65420;SDS011;52028;50.658;14.004;2023-02-15T06:06:13;41.95;;;20.08;;
65420;SDS011;52028;50.658;14.004;2023-02-15T06:08:40;23.52;;;11.77;;
65420;SDS011;52028;50.658;14.004;2023-02-15T06:11:05;22.15;;;9.73;;
65420;SDS011;52028;50.658;14.004;2023-02-15T06:13:31;23.17;;;8.75;;
65420;SDS011;52028;50.658;14.004;2023-02-15T06:15:57;19.17;;;8.85;;
65420;SDS011;52028;50.658;14.004;2023-02-15T06:18:23;25.73;;;8.32;;
65420;SDS011;52028;50.658;14.004;2023-02-15T06:20:48;18.10;;;7.47;;
65420;SDS011;52028;50.658;14.004;2023-02-15T06:23:14;21.92;;;8.00;;
65420;SDS011;52028;50.658;14.004;2023-02-15T06:25:39;23.75;;;10.75;;
65420;SDS011;52028;50.658;14.004;2023-02-15T06:28:05;23.10;;;8.30;;
65420;SDS011;52028;50.658;14.004;2023-02-15T06:30:30;19.35;;;8.60;;
65420;SDS011;52028;50.658;14.004;2023-02-15T06:32:56;22.75;;;8.30;;
65420;SDS011;52028;50.658;14.004;2023-02-15T06:35:21;23.35;;;8.10;;
65420;SDS011;52028;50.658;14.004;2023-02-15T06:37:47;21.20;;;8.23;;
65420;SDS011;52028;50.658;14.004;2023-02-15T06:40:13;31.40;;;12.13;;
65420;SDS011;52028;50.658;14.004;2023-02-15T06:42:39;27.55;;;10.65;;
65420;SDS011;52028;50.658;14.004;2023-02-15T06:45:05;26.25;;;10.43;;
65420;SDS011;52028;50.658;14.004;2023-02-15T06:47:31;28.40;;;11.55;;
65420;SDS011;52028;50.658;14.004;2023-02-15T06:49:56;30.13;;;14.15;;
65420;SDS011;52028;50.658;14.004;2023-02-15T06:52:22;27.48;;;10.10;;
65420;SDS011;52028;50.658;14.004;2023-02-15T06:54:48;27.00;;;10.77;;
65420;SDS011;52028;50.658;14.004;2023-02-15T06:57:13;25.13;;;11.68;;
65420;SDS011;52028;50.658;14.004;2023-02-15T06:59:38;24.85;;;9.93;;
65420;SDS011;52028;50.658;14.004;2023-02-15T07:02:04;33.28;;;10.98;;
65420;SDS011;52028;50.658;14.004;2023-02-15T07:04:29;25.05;;;10.75;;
65420;SDS011;52028;50.658;14.004;2023-02-15T07:06:54;28.52;;;10.57;;
65420;SDS011;52028;50.658;14.004;2023-02-15T07:09:21;25.58;;;11.02;;
65420;SDS011;52028;50.658;14.004;2023-02-15T07:11:46;19.30;;;8.77;;
65420;SDS011;52028;50.658;14.004;2023-02-15T07:14:30;27.83;;;11.23;;
65420;SDS011;52028;50.658;14.004;2023-02-15T07:16:56;25.90;;;10.57;;
65420;SDS011;52028;50.658;14.004;2023-02-15T07:19:22;27.23;;;10.10;;
65420;SDS011;52028;50.658;14.004;2023-02-15T07:21:47;29.30;;;12.90;;
65420;SDS011;52028;50.658;14.004;2023-02-15T07:24:14;25.67;;;10.70;;
65420;SDS011;52028;50.658;14.004;2023-02-15T07:26:39;26.00;;;10.23;;
65420;SDS011;52028;50.658;14.004;2023-02-15T07:29:04;22.13;;;9.55;;
65420;SDS011;52028;50.658;14.004;2023-02-15T07:31:30;26.67;;;10.80;;
65420;SDS011;52028;50.658;14.004;2023-02-15T07:33:55;24.83;;;10.80;;
65420;SDS011;52028;50.658;14.004;2023-02-15T07:36:21;25.08;;;9.73;;
65420;SDS011;52028;50.658;14.004;2023-02-15T07:38:46;27.23;;;10.07;;
65420;SDS011;52028;50.658;14.004;2023-02-15T07:41:12;24.85;;;10.27;;
65420;SDS011;52028;50.658;14.004;2023-02-15T07:43:39;22.15;;;9.63;;
65420;SDS011;52028;50.658;14.004;2023-02-15T07:46:07;26.75;;;9.73;;
65420;SDS011;52028;50.658;14.004;2023-02-15T07:48:41;26.98;;;9.50;;
65420;SDS011;52028;50.658;14.004;2023-02-15T07:51:07;22.80;;;8.60;;
65420;SDS011;52028;50.658;14.004;2023-02-15T07:53:34;22.60;;;8.98;;
65420;SDS011;52028;50.658;14.004;2023-02-15T07:56:05;26.23;;;10.27;;
65420;SDS011;52028;50.658;14.004;2023-02-15T08:01:21;22.42;;;8.55;;
65420;SDS011;52028;50.658;14.004;2023-02-15T08:03:51;29.55;;;10.23;;
65420;SDS011;52028;50.658;14.004;2023-02-15T08:06:18;25.83;;;11.15;;
65420;SDS011;52028;50.658;14.004;2023-02-15T08:08:44;24.70;;;9.18;;
65420;SDS011;52028;50.658;14.004;2023-02-15T08:13:57;21.92;;;8.43;;
65420;SDS011;52028;50.658;14.004;2023-02-15T08:16:36;30.75;;;11.25;;
65420;SDS011;52028;50.658;14.004;2023-02-15T08:19:06;27.88;;;10.15;;
65420;SDS011;52028;50.658;14.004;2023-02-15T08:21:49;29.27;;;11.63;;
65420;SDS011;52028;50.658;14.004;2023-02-15T08:24:17;28.10;;;10.13;;
65420;SDS011;52028;50.658;14.004;2023-02-15T08:26:44;27.35;;;11.18;;
65420;SDS011;52028;50.658;14.004;2023-02-15T08:29:11;26.23;;;11.55;;
65420;SDS011;52028;50.658;14.004;2023-02-15T08:31:38;24.92;;;10.07;;
65420;SDS011;52028;50.658;14.004;2023-02-15T08:34:06;26.95;;;10.75;;
65420;SDS011;52028;50.658;14.004;2023-02-15T08:36:32;21.83;;;9.13;;
65420;SDS011;52028;50.658;14.004;2023-02-15T08:38:58;27.95;;;10.90;;
65420;SDS011;52028;50.658;14.004;2023-02-15T08:41:25;32.03;;;12.25;;
65420;SDS011;52028;50.658;14.004;2023-02-15T08:43:56;29.17;;;11.75;;
65420;SDS011;52028;50.658;14.004;2023-02-15T08:46:25;29.77;;;12.48;;
65420;SDS011;52028;50.658;14.004;2023-02-15T08:48:52;34.30;;;12.75;;
65420;SDS011;52028;50.658;14.004;2023-02-15T08:51:19;34.10;;;13.68;;
65420;SDS011;52028;50.658;14.004;2023-02-15T08:53:47;28.13;;;11.68;;
65420;SDS011;52028;50.658;14.004;2023-02-15T08:56:17;24.55;;;10.02;;
65420;SDS011;52028;50.658;14.004;2023-02-15T08:58:44;28.55;;;11.68;;
65420;SDS011;52028;50.658;14.004;2023-02-15T09:01:13;25.20;;;11.45;;
65420;SDS011;52028;50.658;14.004;2023-02-15T09:03:43;29.40;;;12.35;;
65420;SDS011;52028;50.658;14.004;2023-02-15T09:06:10;19.08;;;9.65;;
65420;SDS011;52028;50.658;14.004;2023-02-15T09:08:36;29.05;;;10.43;;
65420;SDS011;52028;50.658;14.004;2023-02-15T09:11:44;27.92;;;12.13;;
65420;SDS011;52028;50.658;14.004;2023-02-15T09:13:55;34.97;;;12.52;;
65420;SDS011;52028;50.658;14.004;2023-02-15T09:16:23;25.77;;;11.23;;
65420;SDS011;52028;50.658;14.004;2023-02-15T09:18:50;30.65;;;12.93;;
65420;SDS011;52028;50.658;14.004;2023-02-15T09:21:16;26.65;;;12.60;;
65420;SDS011;52028;50.658;14.004;2023-02-15T09:23:44;26.30;;;11.35;;
65420;SDS011;52028;50.658;14.004;2023-02-15T09:26:20;26.90;;;11.48;;
65420;SDS011;52028;50.658;14.004;2023-02-15T09:28:47;33.65;;;14.02;;
65420;SDS011;52028;50.658;14.004;2023-02-15T09:31:16;28.05;;;11.20;;
65420;SDS011;52028;50.658;14.004;2023-02-15T09:33:44;29.90;;;12.68;;
65420;SDS011;52028;50.658;14.004;2023-02-15T09:36:15;25.77;;;9.70;;
65420;SDS011;52028;50.658;14.004;2023-02-15T09:38:50;29.08;;;11.13;;
65420;SDS011;52028;50.658;14.004;2023-02-15T10:11:05;26.10;;;10.93;;
65420;SDS011;52028;50.658;14.004;2023-02-15T10:25:23;18.60;;;8.65;;
65420;SDS011;52028;50.658;14.004;2023-02-15T10:27:59;17.45;;;8.10;;
65420;SDS011;52028;50.658;14.004;2023-02-15T10:33:04;26.08;;;12.13;;
65420;SDS011;52028;50.658;14.004;2023-02-15T10:57:19;22.90;;;9.32;;
65420;SDS011;52028;50.658;14.004;2023-02-15T11:00:16;24.40;;;9.77;;
65420;SDS011;52028;50.658;14.004;2023-02-15T11:02:55;37.03;;;15.20;;
65420;SDS011;52028;50.658;14.004;2023-02-15T11:07:54;24.75;;;11.55;;
65420;SDS011;52028;50.658;14.004;2023-02-15T11:13:04;41.35;;;16.95;;
65420;SDS011;52028;50.658;14.004;2023-02-15T11:15:35;24.70;;;10.55;;
65420;SDS011;52028;50.658;14.004;2023-02-15T11:18:13;32.97;;;13.57;;
65420;SDS011;52028;50.658;14.004;2023-02-15T11:20:42;35.10;;;15.13;;
65420;SDS011;52028;50.658;14.004;2023-02-15T11:23:21;28.40;;;9.88;;
65420;SDS011;52028;50.658;14.004;2023-02-15T11:26:03;30.50;;;11.02;;
65420;SDS011;52028;50.658;14.004;2023-02-15T11:28:33;34.35;;;13.30;;
65420;SDS011;52028;50.658;14.004;2023-02-15T11:31:14;26.48;;;12.23;;
65420;SDS011;52028;50.658;14.004;2023-02-15T11:33:44;24.50;;;11.88;;
65420;SDS011;52028;50.658;14.004;2023-02-15T11:36:14;28.70;;;12.27;;
65420;SDS011;52028;50.658;14.004;2023-02-15T11:38:44;25.08;;;10.38;;
65420;SDS011;52028;50.658;14.004;2023-02-15T11:41:19;25.58;;;11.63;;
65420;SDS011;52028;50.658;14.004;2023-02-15T11:43:52;24.73;;;10.30;;
65420;SDS011;52028;50.658;14.004;2023-02-15T11:46:23;28.45;;;11.40;;
65420;SDS011;52028;50.658;14.004;2023-02-15T11:48:48;26.58;;;12.02;;
65420;SDS011;52028;50.658;14.004;2023-02-15T11:51:14;28.15;;;12.35;;
65420;SDS011;52028;50.658;14.004;2023-02-15T11:53:42;26.67;;;12.32;;
65420;SDS011;52028;50.658;14.004;2023-02-15T11:56:24;39.15;;;14.00;;
65420;SDS011;52028;50.658;14.004;2023-02-15T11:58:52;25.10;;;11.52;;
65420;SDS011;52028;50.658;14.004;2023-02-15T12:01:32;24.35;;;9.98;;
65420;SDS011;52028;50.658;14.004;2023-02-15T12:03:58;21.48;;;8.98;;
65420;SDS011;52028;50.658;14.004;2023-02-15T12:06:33;24.30;;;10.60;;
65420;SDS011;52028;50.658;14.004;2023-02-15T12:11:38;26.73;;;11.18;;
65420;SDS011;52028;50.658;14.004;2023-02-15T12:14:06;27.05;;;12.20;;
65420;SDS011;52028;50.658;14.004;2023-02-15T12:16:46;23.45;;;10.38;;
65420;SDS011;52028;50.658;14.004;2023-02-15T12:19:24;26.27;;;12.48;;
65420;SDS011;52028;50.658;14.004;2023-02-15T12:21:55;22.55;;;10.43;;
65420;SDS011;52028;50.658;14.004;2023-02-15T12:24:23;21.17;;;10.02;;
65420;SDS011;52028;50.658;14.004;2023-02-15T12:26:56;28.55;;;11.75;;
65420;SDS011;52028;50.658;14.004;2023-02-15T12:29:27;25.33;;;11.05;;
65420;SDS011;52028;50.658;14.004;2023-02-15T12:31:56;26.35;;;10.10;;
65420;SDS011;52028;50.658;14.004;2023-02-15T12:34:26;31.45;;;12.07;;
65420;SDS011;52028;50.658;14.004;2023-02-15T12:36:56;24.65;;;10.73;;
65420;SDS011;52028;50.658;14.004;2023-02-15T12:39:26;23.95;;;12.40;;
65420;SDS011;52028;50.658;14.004;2023-02-15T12:44:25;30.85;;;12.95;;
65420;SDS011;52028;50.658;14.004;2023-02-15T12:49:41;24.58;;;11.60;;
65420;SDS011;52028;50.658;14.004;2023-02-15T12:54:48;43.25;;;15.48;;
65420;SDS011;52028;50.658;14.004;2023-02-15T12:57:27;23.60;;;11.85;;
65420;SDS011;52028;50.658;14.004;2023-02-15T13:04:56;29.95;;;11.02;;
65420;SDS011;52028;50.658;14.004;2023-02-15T13:07:23;35.33;;;15.65;;
65420;SDS011;52028;50.658;14.004;2023-02-15T13:09:54;38.10;;;14.77;;
65420;SDS011;52028;50.658;14.004;2023-02-15T13:12:23;25.52;;;10.82;;
65420;SDS011;52028;50.658;14.004;2023-02-15T13:14:55;31.10;;;13.15;;
65420;SDS011;52028;50.658;14.004;2023-02-15T13:17:26;30.77;;;13.18;;
65420;SDS011;52028;50.658;14.004;2023-02-15T13:19:54;32.70;;;13.45;;
65420;SDS011;52028;50.658;14.004;2023-02-15T13:22:37;33.92;;;14.32;;
65420;SDS011;52028;50.658;14.004;2023-02-15T13:25:12;33.17;;;13.55;;
65420;SDS011;52028;50.658;14.004;2023-02-15T13:27:41;30.38;;;12.60;;
65420;SDS011;52028;50.658;14.004;2023-02-15T13:30:13;28.05;;;12.05;;
65420;SDS011;52028;50.658;14.004;2023-02-15T13:32:48;28.23;;;13.52;;
65420;SDS011;52028;50.658;14.004;2023-02-15T13:35:16;31.65;;;13.20;;
65420;SDS011;52028;50.658;14.004;2023-02-15T13:37:53;33.38;;;13.95;;
65420;SDS011;52028;50.658;14.004;2023-02-15T13:54:40;27.85;;;13.18;;
65420;SDS011;52028;50.658;14.004;2023-02-15T13:59:56;28.85;;;11.55;;
65420;SDS011;52028;50.658;14.004;2023-02-15T14:02:49;40.33;;;17.33;;
65420;SDS011;52028;50.658;14.004;2023-02-15T14:05:23;37.65;;;16.30;;
65420;SDS011;52028;50.658;14.004;2023-02-15T14:10:43;38.10;;;17.02;;
65420;SDS011;52028;50.658;14.004;2023-02-15T14:16:23;33.95;;;13.75;;
65420;SDS011;52028;50.658;14.004;2023-02-15T14:19:01;44.65;;;17.35;;
65420;SDS011;52028;50.658;14.004;2023-02-15T14:22:00;35.15;;;15.00;;
65420;SDS011;52028;50.658;14.004;2023-02-15T14:24:39;39.58;;;15.60;;
65420;SDS011;52028;50.658;14.004;2023-02-15T14:30:16;36.85;;;15.55;;
65420;SDS011;52028;50.658;14.004;2023-02-15T14:32:46;34.92;;;15.27;;
65420;SDS011;52028;50.658;14.004;2023-02-15T14:35:20;38.55;;;14.23;;
65420;SDS011;52028;50.658;14.004;2023-02-15T14:38:00;41.53;;;16.17;;
65420;SDS011;52028;50.658;14.004;2023-02-15T14:43:37;39.50;;;15.85;;
65420;SDS011;52028;50.658;14.004;2023-02-15T14:54:52;43.35;;;16.73;;
65420;SDS011;52028;50.658;14.004;2023-02-15T14:59:26;51.78;;;21.17;;
65420;SDS011;52028;50.658;14.004;2023-02-15T15:04:34;71.50;;;29.55;;
65420;SDS011;52028;50.658;14.004;2023-02-15T15:09:37;45.10;;;18.40;;
65420;SDS011;52028;50.658;14.004;2023-02-15T15:14:43;38.45;;;15.93;;
65420;SDS011;52028;50.658;14.004;2023-02-15T15:17:11;42.58;;;15.98;;
65420;SDS011;52028;50.658;14.004;2023-02-15T15:22:23;35.92;;;14.95;;
65420;SDS011;52028;50.658;14.004;2023-02-15T15:35:36;82.15;;;29.92;;
65420;SDS011;52028;50.658;14.004;2023-02-15T15:41:16;111.93;;;37.08;;
65420;SDS011;52028;50.658;14.004;2023-02-15T15:46:18;46.33;;;16.63;;
65420;SDS011;52028;50.658;14.004;2023-02-15T15:49:15;48.80;;;18.75;;
65420;SDS011;52028;50.658;14.004;2023-02-15T15:51:43;58.15;;;20.80;;
65420;SDS011;52028;50.658;14.004;2023-02-15T15:54:14;42.15;;;17.45;;
65420;SDS011;52028;50.658;14.004;2023-02-15T15:56:43;52.80;;;19.85;;
65420;SDS011;52028;50.658;14.004;2023-02-15T15:59:14;56.72;;;21.58;;
65420;SDS011;52028;50.658;14.004;2023-02-15T16:01:45;41.17;;;16.95;;
65420;SDS011;52028;50.658;14.004;2023-02-15T16:04:31;46.35;;;16.90;;
65420;SDS011;52028;50.658;14.004;2023-02-15T16:06:58;39.55;;;15.90;;
65420;SDS011;52028;50.658;14.004;2023-02-15T16:09:37;37.83;;;14.10;;
65420;SDS011;52028;50.658;14.004;2023-02-15T16:12:04;44.63;;;17.00;;
65420;SDS011;52028;50.658;14.004;2023-02-15T16:14:40;36.50;;;15.13;;
65420;SDS011;52028;50.658;14.004;2023-02-15T16:17:14;35.95;;;14.82;;
65420;SDS011;52028;50.658;14.004;2023-02-15T16:19:52;39.83;;;14.68;;
65420;SDS011;52028;50.658;14.004;2023-02-15T16:22:21;40.80;;;15.63;;
65420;SDS011;52028;50.658;14.004;2023-02-15T16:27:42;41.90;;;16.00;;
65420;SDS011;52028;50.658;14.004;2023-02-15T16:33:11;40.50;;;15.93;;
65420;SDS011;52028;50.658;14.004;2023-02-15T16:35:38;36.30;;;14.80;;
65420;SDS011;52028;50.658;14.004;2023-02-15T16:38:08;51.88;;;20.48;;
65420;SDS011;52028;50.658;14.004;2023-02-15T16:43:13;43.85;;;17.02;;
65420;SDS011;52028;50.658;14.004;2023-02-15T16:45:41;56.17;;;18.95;;
65420;SDS011;52028;50.658;14.004;2023-02-15T16:48:10;58.63;;;24.90;;
65420;SDS011;52028;50.658;14.004;2023-02-15T16:50:41;49.50;;;20.25;;
65420;SDS011;52028;50.658;14.004;2023-02-15T16:53:14;48.28;;;19.00;;
65420;SDS011;52028;50.658;14.004;2023-02-15T16:55:47;39.33;;;15.55;;
65420;SDS011;52028;50.658;14.004;2023-02-15T16:58:15;41.30;;;18.40;;
65420;SDS011;52028;50.658;14.004;2023-02-15T17:00:42;69.03;;;25.48;;
65420;SDS011;52028;50.658;14.004;2023-02-15T17:05:50;55.10;;;22.35;;
65420;SDS011;52028;50.658;14.004;2023-02-15T17:08:30;71.68;;;23.40;;
65420;SDS011;52028;50.658;14.004;2023-02-15T17:13:24;76.88;;;25.88;;
65420;SDS011;52028;50.658;14.004;2023-02-15T17:18:26;89.57;;;31.10;;
65420;SDS011;52028;50.658;14.004;2023-02-15T17:20:56;54.85;;;20.80;;
65420;SDS011;52028;50.658;14.004;2023-02-15T17:25:57;45.72;;;19.08;;
65420;SDS011;52028;50.658;14.004;2023-02-15T17:28:26;96.75;;;31.67;;
65420;SDS011;52028;50.658;14.004;2023-02-15T17:30:59;99.35;;;30.98;;
65420;SDS011;52028;50.658;14.004;2023-02-15T17:36:12;63.53;;;21.23;;
65420;SDS011;52028;50.658;14.004;2023-02-15T17:43:48;52.60;;;18.73;;
65420;SDS011;52028;50.658;14.004;2023-02-15T17:46:13;61.35;;;21.65;;
65420;SDS011;52028;50.658;14.004;2023-02-15T17:48:40;50.80;;;18.73;;
65420;SDS011;52028;50.658;14.004;2023-02-15T17:51:09;58.65;;;20.83;;
65420;SDS011;52028;50.658;14.004;2023-02-15T17:53:37;69.28;;;26.08;;
65420;SDS011;52028;50.658;14.004;2023-02-15T17:56:03;44.83;;;16.85;;
65420;SDS011;52028;50.658;14.004;2023-02-15T17:58:34;45.70;;;18.13;;
65420;SDS011;52028;50.658;14.004;2023-02-15T18:01:04;38.97;;;15.60;;
65420;SDS011;52028;50.658;14.004;2023-02-15T18:03:51;42.92;;;17.30;;
65420;SDS011;52028;50.658;14.004;2023-02-15T18:06:39;49.60;;;19.00;;
65420;SDS011;52028;50.658;14.004;2023-02-15T18:09:25;44.13;;;17.83;;